createdAt,value
2022-12-12T00:00:19.045Z,57.51
2022-12-12T00:03:08.380Z,59.05
2022-12-12T00:05:50.630Z,58.41
2022-12-12T00:08:39.335Z,59.16
2022-12-12T00:11:21.655Z,59.11
2022-12-12T00:14:10.385Z,58.53
2022-12-12T00:16:52.666Z,57.50
2022-12-12T00:19:42.339Z,59.15
2022-12-12T00:22:24.616Z,57.91
2022-12-12T00:25:13.525Z,58.53
2022-12-12T00:28:02.348Z,60.40
2022-12-12T00:30:44.738Z,59.52
2022-12-12T00:33:34.432Z,60.44
2022-12-12T00:36:23.736Z,60.16
2022-12-12T00:39:18.037Z,60.32
2022-12-12T00:42:07.324Z,59.52
2022-12-12T00:44:49.583Z,61.47
2022-12-12T00:47:38.327Z,59.92
2022-12-12T00:50:20.999Z,59.05
2022-12-12T00:53:11.429Z,61.00
2022-12-12T00:56:05.649Z,59.24
2022-12-12T00:58:48.384Z,58.95
2022-12-12T01:01:32.412Z,59.77
2022-12-12T01:04:21.448Z,60.78
2022-12-12T01:07:03.557Z,60.41
2022-12-12T01:09:52.380Z,61.59
2022-12-12T01:12:41.272Z,61.05
2022-12-12T01:15:24.642Z,61.70
2022-12-12T01:18:13.230Z,61.61
2022-12-12T01:20:57.139Z,61.77
2022-12-12T01:23:46.283Z,62.00
2022-12-12T01:26:31.667Z,62.33
2022-12-12T01:29:23.361Z,63.12
2022-12-12T01:32:12.354Z,63.02
2022-12-12T01:34:54.499Z,63.68
2022-12-12T01:37:43.334Z,64.00
2022-12-12T01:40:42.410Z,63.95
2022-12-12T01:43:26.545Z,63.38
2022-12-12T01:46:16.420Z,63.82
2022-12-12T01:49:11.379Z,64.81
2022-12-12T01:52:02.274Z,64.36
2022-12-12T01:54:48.628Z,64.91
2022-12-12T01:57:44.380Z,64.10
2022-12-12T02:00:26.594Z,65.55
2022-12-12T02:03:15.315Z,65.51
2022-12-12T02:06:03.483Z,66.15
2022-12-12T02:08:54.365Z,66.13
2022-12-12T02:11:51.370Z,65.15
2022-12-12T02:14:40.634Z,65.68
2022-12-12T02:17:34.278Z,64.32
2022-12-12T02:21:01.218Z,65.14
2022-12-12T02:24:08.217Z,64.09
2022-12-12T02:27:11.266Z,62.75
2022-12-12T02:30:11.691Z,62.43
2022-12-12T02:33:11.369Z,62.75
2022-12-12T02:36:30.168Z,61.90
2022-12-12T02:39:44.343Z,62.27
2022-12-12T02:42:38.648Z,63.35
2022-12-12T02:45:46.298Z,62.71
2022-12-12T02:48:32.657Z,62.61
2022-12-12T02:51:23.268Z,63.45
2022-12-12T02:54:14.237Z,63.27
2022-12-12T02:57:08.594Z,62.73
2022-12-12T03:00:07.204Z,61.07
2022-12-12T03:03:28.853Z,61.89
2022-12-12T03:06:42.230Z,60.99
2022-12-12T03:10:01.368Z,60.78
2022-12-12T03:13:15.698Z,60.78
2022-12-12T03:16:17.317Z,61.26
2022-12-12T03:19:17.603Z,59.12
2022-12-12T03:22:24.318Z,58.06
2022-12-12T03:25:33.213Z,56.98
2022-12-12T03:28:51.294Z,53.53
2022-12-12T03:31:45.369Z,52.53
2022-12-12T03:34:32.591Z,49.70
2022-12-12T03:37:31.348Z,48.13
2022-12-12T03:40:26.596Z,47.12
2022-12-12T03:43:17.295Z,46.53
2022-12-12T03:46:20.896Z,44.19
2022-12-12T03:49:36.201Z,40.78
2022-12-12T03:52:45.375Z,43.30
2022-12-12T03:56:11.762Z,41.61
2022-12-12T03:59:08.355Z,40.78
2022-12-12T04:02:06.943Z,39.21
2022-12-12T04:05:24.322Z,38.77
2022-12-12T04:08:18.628Z,39.34
2022-12-12T04:11:49.199Z,38.25
2022-12-12T04:14:49.283Z,38.75
2022-12-12T04:18:16.615Z,38.01
2022-12-12T04:21:29.301Z,38.51
2022-12-12T04:24:14.192Z,37.71
2022-12-12T04:27:23.287Z,38.72
2022-12-12T04:30:16.826Z,35.97
2022-12-12T04:33:20.246Z,36.15
2022-12-12T04:36:09.581Z,36.29
2022-12-12T04:38:55.264Z,37.51
2022-12-12T04:41:47.608Z,35.65
2022-12-12T04:44:31.355Z,36.92
2022-12-12T04:47:22.683Z,37.00
2022-12-12T04:50:07.336Z,37.23
2022-12-12T04:52:58.587Z,37.86
2022-12-12T04:55:44.287Z,36.22
2022-12-12T04:58:33.574Z,36.04
2022-12-12T05:01:17.456Z,36.79
2022-12-12T05:04:08.102Z,36.96
2022-12-12T05:07:05.238Z,36.17
2022-12-12T05:09:47.682Z,36.78
2022-12-12T05:12:37.350Z,36.90
2022-12-12T05:15:28.555Z,36.90
2022-12-12T05:18:16.345Z,38.81
2022-12-12T05:20:58.561Z,36.57
2022-12-12T05:23:47.292Z,37.25
2022-12-12T05:26:42.087Z,37.65
2022-12-12T05:29:24.183Z,37.64
2022-12-12T05:32:06.708Z,37.78
2022-12-12T05:34:55.606Z,37.93
2022-12-12T05:37:46.692Z,37.14
2022-12-12T05:40:38.318Z,37.77
2022-12-12T05:43:27.346Z,35.87
2022-12-12T05:46:17.879Z,37.15
2022-12-12T05:49:01.315Z,36.41
2022-12-12T05:51:49.677Z,36.61
2022-12-12T05:54:32.190Z,35.74
2022-12-12T05:57:14.728Z,36.61
2022-12-12T06:00:03.287Z,35.27
2022-12-12T06:02:51.699Z,35.83
2022-12-12T06:05:34.341Z,34.29
2022-12-12T06:08:18.800Z,34.13
2022-12-12T06:11:11.242Z,36.46
2022-12-12T06:14:00.319Z,35.75
2022-12-12T06:16:43.616Z,35.02
2022-12-12T06:19:32.228Z,35.10
2022-12-12T06:22:14.601Z,34.19
2022-12-12T06:25:03.195Z,35.86
2022-12-12T06:27:45.559Z,36.50
2022-12-12T06:30:34.350Z,36.11
2022-12-12T06:33:16.597Z,35.33
2022-12-12T06:36:19.330Z,35.87
2022-12-12T06:39:10.678Z,33.82
2022-12-12T06:41:53.298Z,33.87
2022-12-12T06:44:36.065Z,32.81
2022-12-12T06:47:25.323Z,34.04
2022-12-12T06:50:07.695Z,35.00
2022-12-12T06:52:56.280Z,34.17
2022-12-12T06:55:53.619Z,34.53
2022-12-12T06:58:35.329Z,33.94
2022-12-12T07:01:22.740Z,35.00
2022-12-12T07:04:11.278Z,34.20
2022-12-12T07:06:53.835Z,33.17
2022-12-12T07:09:42.276Z,33.91
2022-12-12T07:12:30.544Z,32.36
2022-12-12T07:15:13.396Z,33.51
2022-12-12T07:18:02.565Z,33.12
2022-12-12T07:20:48.266Z,32.54
2022-12-12T07:23:38.235Z,33.47
2022-12-12T07:26:30.323Z,32.61
2022-12-12T07:29:19.552Z,32.93
2022-12-12T07:32:02.331Z,32.78
2022-12-12T07:34:44.599Z,34.08
2022-12-12T07:37:33.325Z,34.14
2022-12-12T07:40:15.514Z,33.27
2022-12-12T07:43:04.187Z,32.38
2022-12-12T07:45:55.661Z,32.57
2022-12-12T07:48:37.292Z,32.26
2022-12-12T07:51:19.848Z,32.20
2022-12-12T07:54:08.285Z,31.05
2022-12-12T07:56:50.473Z,32.67
2022-12-12T07:59:39.174Z,31.54
2022-12-12T08:02:21.474Z,32.94
2022-12-12T08:05:10.258Z,33.06
2022-12-12T08:07:59.202Z,33.02
2022-12-12T08:10:48.273Z,33.30
2022-12-12T08:13:37.176Z,33.48
2022-12-12T08:16:27.419Z,33.25
2022-12-12T08:19:09.554Z,32.64
2022-12-12T08:22:00.199Z,31.69
2022-12-12T08:24:42.534Z,33.72
2022-12-12T08:27:31.235Z,34.28
2022-12-12T08:30:13.879Z,33.27
2022-12-12T08:33:07.845Z,32.81
2022-12-12T08:35:56.621Z,32.72
2022-12-12T08:38:38.166Z,33.44
2022-12-12T08:41:27.592Z,32.31
2022-12-12T08:44:10.316Z,31.60
2022-12-12T08:46:52.634Z,31.67
2022-12-12T08:49:41.365Z,32.51
2022-12-12T08:52:23.562Z,32.54
2022-12-12T08:55:12.571Z,32.65
2022-12-12T08:58:00.591Z,31.96
2022-12-12T09:00:42.217Z,31.95
2022-12-12T09:03:29.223Z,30.89
2022-12-12T09:06:20.288Z,31.69
2022-12-12T09:09:02.596Z,30.72
2022-12-12T09:11:51.333Z,32.06
2022-12-12T09:14:41.625Z,31.58
2022-12-12T09:17:24.356Z,32.86
2022-12-12T09:20:08.061Z,31.82
2022-12-12T09:22:57.225Z,31.50
2022-12-12T09:25:42.642Z,32.44
2022-12-12T09:28:33.312Z,31.38
2022-12-12T09:31:22.713Z,31.74
2022-12-12T09:34:04.318Z,31.81
2022-12-12T09:36:53.183Z,32.52
2022-12-12T09:39:42.361Z,32.56
2022-12-12T09:42:39.630Z,33.29
2022-12-12T09:45:22.394Z,33.84
2022-12-12T09:48:12.616Z,32.64
2022-12-12T09:50:57.955Z,32.64
2022-12-12T09:53:50.234Z,32.96
2022-12-12T09:56:46.306Z,33.87
2022-12-12T09:59:42.929Z,33.37
2022-12-12T10:02:53.270Z,36.30
2022-12-12T10:06:13.451Z,36.66
2022-12-12T10:09:19.192Z,34.07
2022-12-12T10:12:10.232Z,35.11
2022-12-12T10:15:06.303Z,35.82
2022-12-12T10:17:56.061Z,34.10
2022-12-12T10:20:41.220Z,34.66
2022-12-12T10:23:59.580Z,34.32
2022-12-12T10:26:42.325Z,35.87
2022-12-12T10:29:39.671Z,34.49
2022-12-12T10:32:37.206Z,35.09
2022-12-12T10:35:39.794Z,33.28
2022-12-12T10:38:39.306Z,33.82
2022-12-12T10:41:57.175Z,34.11
2022-12-12T10:45:11.905Z,35.35
2022-12-12T10:47:55.178Z,34.52
2022-12-12T10:50:50.544Z,35.69
2022-12-12T10:53:33.176Z,35.43
2022-12-12T10:56:28.316Z,35.65
2022-12-12T10:59:17.400Z,35.59
2022-12-12T11:02:10.078Z,36.09
2022-12-12T11:05:00.227Z,36.96
2022-12-12T11:07:48.578Z,38.05
2022-12-12T11:10:36.282Z,37.18
2022-12-12T11:13:18.582Z,37.79
2022-12-12T11:16:18.245Z,37.47
2022-12-12T11:19:31.266Z,37.81
2022-12-12T11:22:15.385Z,39.66
2022-12-12T11:25:05.328Z,40.13
2022-12-12T11:27:48.025Z,40.82
2022-12-12T11:30:45.610Z,42.47
2022-12-12T11:33:55.284Z,42.52
2022-12-12T11:36:50.319Z,43.50
2022-12-12T11:40:03.250Z,42.39
2022-12-12T11:42:45.604Z,43.16
2022-12-12T11:45:34.334Z,45.12
2022-12-12T11:48:54.600Z,44.02
2022-12-12T11:51:52.241Z,43.78
2022-12-12T11:54:43.804Z,45.16
2022-12-12T11:58:12.181Z,44.85
2022-12-12T12:01:34.590Z,47.25
2022-12-12T12:04:59.364Z,46.57
2022-12-12T12:08:16.283Z,47.37
2022-12-12T12:11:16.568Z,48.16
2022-12-12T12:14:30.286Z,47.13
2022-12-12T12:17:47.457Z,47.65
2022-12-12T12:21:13.175Z,47.43
2022-12-12T12:24:24.223Z,47.41
2022-12-12T12:27:18.650Z,47.97
2022-12-12T12:30:27.257Z,48.18
2022-12-12T12:33:40.392Z,49.23
2022-12-12T12:36:26.309Z,49.76
2022-12-12T12:39:43.240Z,50.20
2022-12-12T12:42:53.315Z,49.53
2022-12-12T12:45:46.621Z,48.48
2022-12-12T12:48:44.172Z,50.89
2022-12-12T12:51:50.815Z,50.53
2022-12-12T12:54:46.723Z,50.99
2022-12-12T12:57:33.293Z,50.73
2022-12-12T13:00:26.711Z,51.00
2022-12-12T13:03:28.205Z,49.93
2022-12-12T13:06:39.259Z,49.17
2022-12-12T13:10:04.284Z,49.90
2022-12-12T13:13:06.725Z,49.84
2022-12-12T13:16:15.423Z,51.63
2022-12-12T13:19:36.870Z,50.91
2022-12-12T13:22:44.250Z,51.82
2022-12-12T13:25:50.260Z,51.31
2022-12-12T13:29:12.315Z,51.89
2022-12-12T13:32:24.439Z,52.15
2022-12-12T13:35:19.299Z,52.94
2022-12-12T13:38:08.249Z,52.68
2022-12-12T13:41:14.107Z,53.41
2022-12-12T13:44:08.158Z,53.73
2022-12-12T13:46:58.216Z,53.69
2022-12-12T13:50:14.892Z,53.14
2022-12-12T13:53:16.307Z,53.33
2022-12-12T13:56:43.423Z,52.50
2022-12-12T13:59:38.659Z,53.36
2022-12-12T14:02:53.337Z,53.25
2022-12-12T14:05:43.328Z,53.22
2022-12-12T14:08:32.929Z,54.13
2022-12-12T14:11:37.327Z,54.22
2022-12-12T14:14:27.607Z,53.66
2022-12-12T14:17:11.191Z,53.61
2022-12-12T14:20:02.255Z,54.57
2022-12-12T14:22:45.566Z,54.38
2022-12-12T14:25:52.240Z,54.58
2022-12-12T14:28:40.534Z,55.70
2022-12-12T14:31:34.963Z,54.96
2022-12-12T14:34:54.571Z,55.65
2022-12-12T14:38:14.196Z,55.97
2022-12-12T14:41:15.174Z,56.14
2022-12-12T14:44:37.421Z,57.07
2022-12-12T14:47:16.248Z,56.77
2022-12-12T14:50:18.809Z,57.18
2022-12-12T14:53:01.263Z,56.26
2022-12-12T14:56:18.296Z,56.56
2022-12-12T14:59:50.219Z,57.10
2022-12-12T15:02:47.306Z,57.75
2022-12-12T15:05:29.599Z,58.35
2022-12-12T15:08:28.282Z,57.73
2022-12-12T15:11:10.750Z,57.35
2022-12-12T15:14:05.154Z,56.09
2022-12-12T15:16:55.820Z,55.61
2022-12-12T15:20:04.163Z,54.97
2022-12-12T15:23:08.260Z,54.25
2022-12-12T15:26:03.238Z,55.40
2022-12-12T15:28:52.206Z,54.69
2022-12-12T15:31:41.744Z,54.58
2022-12-12T15:35:07.238Z,54.86
2022-12-12T15:38:10.709Z,54.82
2022-12-12T15:41:02.290Z,54.30
2022-12-12T15:43:46.696Z,56.24
2022-12-12T15:46:36.289Z,54.99
2022-12-12T15:50:03.700Z,54.20
2022-12-12T15:52:53.275Z,54.15
2022-12-12T15:55:36.666Z,53.88
2022-12-12T15:58:32.280Z,53.99
2022-12-12T16:01:30.307Z,54.85
2022-12-12T16:04:22.251Z,55.21
2022-12-12T16:07:30.599Z,55.45
2022-12-12T16:10:20.324Z,55.65
2022-12-12T16:13:15.245Z,55.30
2022-12-12T16:16:04.206Z,54.90
2022-12-12T16:18:55.202Z,55.74
2022-12-12T16:21:50.641Z,55.81
2022-12-12T16:24:34.325Z,56.56
2022-12-12T16:27:16.639Z,56.99
2022-12-12T16:30:05.294Z,57.31
2022-12-12T16:32:47.467Z,56.80
2022-12-12T16:35:39.180Z,56.80
2022-12-12T16:38:22.390Z,57.30
2022-12-12T16:41:14.250Z,58.04
2022-12-12T16:44:03.531Z,56.71
2022-12-12T16:46:46.208Z,56.17
2022-12-12T16:49:28.843Z,55.79
2022-12-12T16:52:17.436Z,55.71
2022-12-12T16:55:10.492Z,55.88
2022-12-12T16:58:02.666Z,56.41
2022-12-12T17:00:53.840Z,57.16
2022-12-12T17:03:38.238Z,56.98
2022-12-12T17:06:26.516Z,57.12
2022-12-12T17:09:08.180Z,57.79
2022-12-12T17:11:57.281Z,57.39
2022-12-12T17:14:39.813Z,58.20
2022-12-12T17:17:28.352Z,58.07
2022-12-12T17:20:10.620Z,57.39
2022-12-12T17:26:04.379Z,58.54
2022-12-12T17:28:54.317Z,58.09
2022-12-12T17:31:37.771Z,58.04
2022-12-12T17:34:26.145Z,57.80
2022-12-12T17:37:08.565Z,59.01
2022-12-12T17:39:57.313Z,58.38
2022-12-12T17:42:46.856Z,58.08
2022-12-12T17:45:30.240Z,57.80
2022-12-12T17:48:12.668Z,58.22
2022-12-12T17:51:14.220Z,58.10
2022-12-12T17:54:04.325Z,57.67
2022-12-12T17:56:47.282Z,56.88
2022-12-12T17:59:29.846Z,57.27
2022-12-12T18:02:19.327Z,56.51
2022-12-12T18:05:10.873Z,55.12
2022-12-12T18:07:54.297Z,54.74
2022-12-12T18:10:44.670Z,54.27
2022-12-12T18:13:26.253Z,54.22
2022-12-12T18:16:11.843Z,54.51
2022-12-12T18:19:01.687Z,54.37
2022-12-12T18:22:05.587Z,54.56
2022-12-12T18:24:48.352Z,54.73
2022-12-12T18:27:39.149Z,54.49
2022-12-12T18:30:22.232Z,55.03
2022-12-12T18:33:10.577Z,53.91
2022-12-12T18:35:53.278Z,53.34
2022-12-12T18:38:47.772Z,53.26
2022-12-12T18:41:44.309Z,52.42
2022-12-12T18:44:32.628Z,53.03
2022-12-12T18:47:15.271Z,54.34
2022-12-12T18:50:04.681Z,53.40
2022-12-12T18:52:47.211Z,53.10
2022-12-12T18:55:38.166Z,52.81
2022-12-12T18:58:28.223Z,52.00
2022-12-12T19:01:23.331Z,52.81
2022-12-12T19:04:13.183Z,52.76
2022-12-12T19:07:03.216Z,51.54
2022-12-12T19:09:46.201Z,51.89
2022-12-12T19:12:28.581Z,52.31
2022-12-12T19:15:18.278Z,51.43
2022-12-12T19:18:09.132Z,51.18
2022-12-12T19:20:57.560Z,51.73
2022-12-12T19:23:40.215Z,50.74
2022-12-12T19:26:29.050Z,50.75
2022-12-12T19:29:25.159Z,49.41
2022-12-12T19:32:14.621Z,49.88
2022-12-12T19:34:57.197Z,50.21
2022-12-12T19:37:40.504Z,47.80
2022-12-12T19:40:30.298Z,48.62
2022-12-12T19:43:12.510Z,47.70
2022-12-12T19:46:01.217Z,47.73
2022-12-12T19:48:51.229Z,47.64
2022-12-12T19:51:44.160Z,49.78
2022-12-12T19:54:32.566Z,49.41
2022-12-12T19:57:14.295Z,48.28
2022-12-12T20:00:02.581Z,48.73
2022-12-12T20:02:45.350Z,48.93
2022-12-12T20:05:33.490Z,49.83
2022-12-12T20:08:16.256Z,50.05
2022-12-12T20:11:09.227Z,50.47
2022-12-12T20:14:03.232Z,50.46
2022-12-12T20:16:46.010Z,50.65
2022-12-12T20:19:37.197Z,49.62
2022-12-12T20:22:25.542Z,50.15
2022-12-12T20:25:08.289Z,50.76
2022-12-12T20:27:57.093Z,50.47
2022-12-12T20:30:49.586Z,49.70
2022-12-12T20:33:35.036Z,49.25
2022-12-12T20:36:34.123Z,50.69
2022-12-12T20:39:18.075Z,50.77
2022-12-12T20:42:07.217Z,50.26
2022-12-12T20:44:50.603Z,50.11
2022-12-12T20:47:39.180Z,51.03
2022-12-12T20:50:28.203Z,51.26
2022-12-12T20:53:10.700Z,51.21
2022-12-12T20:55:59.248Z,50.52
2022-12-12T20:58:41.493Z,50.65
2022-12-12T21:01:32.272Z,52.06
2022-12-12T21:04:16.216Z,51.20
2022-12-12T21:07:05.171Z,51.91
2022-12-12T21:09:47.500Z,52.37
2022-12-12T21:12:30.250Z,52.15
2022-12-12T21:15:19.717Z,51.73
2022-12-12T21:18:03.269Z,51.91
2022-12-12T21:20:52.534Z,51.92
2022-12-12T21:23:35.200Z,51.98
2022-12-12T21:26:26.745Z,52.12
2022-12-12T21:29:12.091Z,52.10
2022-12-12T21:31:54.513Z,52.69
2022-12-12T21:34:43.181Z,53.31
2022-12-12T21:37:38.634Z,52.96
2022-12-12T21:40:35.094Z,52.86
2022-12-12T21:43:24.085Z,52.86
2022-12-12T21:46:14.305Z,53.36
2022-12-12T21:49:27.286Z,52.84
2022-12-12T21:52:12.233Z,53.01
2022-12-12T21:55:00.488Z,52.92
2022-12-12T21:57:43.193Z,52.79
2022-12-12T22:00:31.513Z,52.66
2022-12-12T22:03:17.347Z,53.45
2022-12-12T22:05:59.673Z,53.68
2022-12-12T22:08:48.186Z,52.62
2022-12-12T22:11:49.503Z,51.80
2022-12-12T22:14:43.142Z,52.69
2022-12-12T22:17:25.453Z,52.58
2022-12-12T22:20:14.175Z,52.54
2022-12-12T22:23:03.201Z,52.33
2022-12-12T22:25:45.828Z,50.71
2022-12-12T22:28:36.236Z,49.70
2022-12-12T22:31:26.209Z,51.25
2022-12-12T22:34:11.517Z,48.77
2022-12-12T22:37:01.079Z,49.45
2022-12-12T22:39:55.120Z,48.67
2022-12-12T22:42:43.507Z,46.82
2022-12-12T22:45:26.270Z,47.81
2022-12-12T22:48:14.477Z,46.76
2022-12-12T22:50:57.221Z,46.54
2022-12-12T22:53:43.991Z,45.88
2022-12-12T22:56:33.217Z,47.17
2022-12-12T22:59:23.185Z,48.18
2022-12-12T23:02:05.467Z,47.91
2022-12-12T23:04:54.394Z,47.62
2022-12-12T23:07:36.503Z,48.07
2022-12-12T23:10:25.213Z,47.73
2022-12-12T23:13:07.456Z,48.37
2022-12-12T23:15:56.321Z,48.63
2022-12-12T23:18:38.536Z,49.15
2022-12-12T23:21:30.214Z,48.80
2022-12-12T23:24:20.092Z,49.06
2022-12-12T23:27:09.233Z,49.39
2022-12-12T23:29:58.206Z,50.42
2022-12-12T23:32:47.224Z,49.96
2022-12-12T23:35:29.452Z,50.10
2022-12-12T23:38:18.280Z,50.05
2022-12-12T23:41:00.435Z,50.80
2022-12-12T23:43:49.155Z,50.55
2022-12-12T23:46:33.280Z,50.99
2022-12-12T23:49:26.079Z,51.99
2022-12-12T23:52:15.125Z,51.81
2022-12-12T23:55:03.489Z,51.58
2022-12-12T23:57:46.080Z,51.36
